createdAt,value
2022-11-09T00:01:50.351Z,1.20
2022-11-09T00:03:56.717Z,1.15
2022-11-09T00:05:59.393Z,1.20
2022-11-09T00:08:00.860Z,1.20
2022-11-09T00:10:02.370Z,1.20
2022-11-09T00:12:04.913Z,1.10
2022-11-09T00:14:06.520Z,1.30
2022-11-09T00:16:09.469Z,1.60
2022-11-09T00:18:10.890Z,1.30
2022-11-09T00:20:12.638Z,1.42
2022-11-09T00:22:14.077Z,1.98
2022-11-09T00:24:16.295Z,0.90
2022-11-09T00:26:19.047Z,1.52
2022-11-09T00:28:20.575Z,1.25
2022-11-09T00:30:21.995Z,1.38
2022-11-09T00:32:27.607Z,1.17
2022-11-09T00:34:29.440Z,1.27
2022-11-09T00:36:30.918Z,1.20
2022-11-09T00:38:32.336Z,1.15
2022-11-09T00:40:33.747Z,1.10
2022-11-09T00:42:35.219Z,1.20
2022-11-09T00:44:36.678Z,1.20
2022-11-09T00:46:38.121Z,1.40
2022-11-09T00:48:40.193Z,1.38
2022-11-09T00:50:41.653Z,1.38
2022-11-09T00:52:43.084Z,0.90
2022-11-09T00:54:44.510Z,1.00
2022-11-09T00:56:45.924Z,1.38
2022-11-09T00:58:47.454Z,1.30
2022-11-09T01:00:49.087Z,1.30
2022-11-09T01:02:51.065Z,1.23
2022-11-09T01:04:52.500Z,1.15
2022-11-09T01:06:53.974Z,1.20
2022-11-09T01:08:55.878Z,1.20
2022-11-09T01:10:57.365Z,1.45
2022-11-09T01:12:59.343Z,1.38
2022-11-09T01:15:01.028Z,1.50
2022-11-09T01:17:02.473Z,1.02
2022-11-09T01:19:04.160Z,1.52
2022-11-09T01:21:09.700Z,1.17
2022-11-09T01:23:12.738Z,1.30
2022-11-09T01:25:15.415Z,1.40
2022-11-09T01:27:16.869Z,1.30
2022-11-09T01:29:18.371Z,1.17
2022-11-09T01:31:21.392Z,1.30
2022-11-09T01:33:23.005Z,1.30
2022-11-09T01:35:24.556Z,1.55
2022-11-09T01:37:26.015Z,1.25
2022-11-09T01:39:27.442Z,1.33
2022-11-09T01:41:29.415Z,1.20
2022-11-09T01:43:30.873Z,1.27
2022-11-09T01:45:32.353Z,1.30
2022-11-09T01:47:34.580Z,1.10
2022-11-09T01:49:45.461Z,1.20
2022-11-09T01:51:52.903Z,1.40
2022-11-09T01:54:00.753Z,1.67
2022-11-09T01:56:06.785Z,1.30
2022-11-09T01:58:17.727Z,1.30
2022-11-09T02:00:19.369Z,1.05
2022-11-09T02:02:21.256Z,1.20
2022-11-09T02:04:26.984Z,1.27
2022-11-09T02:06:30.778Z,1.40
2022-11-09T02:08:32.544Z,1.30
2022-11-09T02:10:41.091Z,1.30
2022-11-09T02:12:43.437Z,1.20
2022-11-09T02:14:45.552Z,1.10
2022-11-09T02:16:47.487Z,1.38
2022-11-09T02:18:52.997Z,1.08
2022-11-09T02:20:57.023Z,1.10
2022-11-09T02:22:58.464Z,1.00
2022-11-09T02:25:00.015Z,1.20
2022-11-09T02:27:01.587Z,1.13
2022-11-09T02:29:07.157Z,1.20
2022-11-09T02:31:13.233Z,1.23
2022-11-09T02:33:14.712Z,1.33
2022-11-09T02:35:16.178Z,1.50
2022-11-09T02:37:50.625Z,1.30
2022-11-09T02:39:52.117Z,1.20
2022-11-09T02:42:02.949Z,1.05
2022-11-09T02:44:05.369Z,1.23
2022-11-09T02:46:06.850Z,1.00
2022-11-09T02:48:08.379Z,1.30
2022-11-09T02:50:10.205Z,1.30
2022-11-09T02:52:11.745Z,1.17
2022-11-09T02:54:13.405Z,1.23
2022-11-09T02:56:14.854Z,1.27
2022-11-09T02:58:16.277Z,1.20
2022-11-09T03:00:17.842Z,1.45
2022-11-09T03:02:19.309Z,1.30
2022-11-09T03:04:20.741Z,1.38
2022-11-09T03:06:34.279Z,1.10
2022-11-09T03:08:36.659Z,1.10
2022-11-09T03:10:38.094Z,1.20
2022-11-09T03:12:39.643Z,0.90
2022-11-09T03:14:41.119Z,1.35
2022-11-09T03:16:46.474Z,1.35
2022-11-09T03:18:51.306Z,1.10
2022-11-09T03:20:52.742Z,1.20
2022-11-09T03:22:58.105Z,1.27
2022-11-09T03:24:59.577Z,1.30
2022-11-09T03:27:01.117Z,1.10
2022-11-09T03:29:02.538Z,1.05
2022-11-09T03:31:04.089Z,1.10
2022-11-09T03:33:10.339Z,1.20
2022-11-09T03:35:11.804Z,1.10
2022-11-09T03:37:13.326Z,1.23
2022-11-09T03:39:14.781Z,1.45
2022-11-09T03:41:16.205Z,1.30
2022-11-09T03:43:17.962Z,1.27
2022-11-09T03:45:19.629Z,0.82
2022-11-09T03:47:21.060Z,0.93
2022-11-09T03:49:23.830Z,1.17
2022-11-09T03:51:25.352Z,0.93
2022-11-09T03:53:26.794Z,1.13
2022-11-09T03:55:29.061Z,1.30
2022-11-09T03:57:30.612Z,1.27
2022-11-09T03:59:32.055Z,1.10
2022-11-09T04:01:33.511Z,1.10
2022-11-09T04:03:34.975Z,1.48
2022-11-09T04:05:36.464Z,1.10
2022-11-09T04:07:38.646Z,1.08
2022-11-09T04:09:40.112Z,0.90
2022-11-09T04:11:41.545Z,1.17
2022-11-09T04:13:43.221Z,0.98
2022-11-09T04:15:44.652Z,1.25
2022-11-09T04:17:57.251Z,1.13
2022-11-09T04:19:58.913Z,1.10
2022-11-09T04:22:00.327Z,1.10
2022-11-09T04:24:01.792Z,1.20
2022-11-09T04:26:03.258Z,1.42
2022-11-09T04:28:06.440Z,1.00
2022-11-09T04:30:08.495Z,1.27
2022-11-09T04:32:09.943Z,1.27
2022-11-09T04:34:11.366Z,1.17
2022-11-09T04:36:12.833Z,1.10
2022-11-09T04:38:14.833Z,0.95
2022-11-09T04:40:16.302Z,0.90
2022-11-09T04:42:17.750Z,1.35
2022-11-09T04:44:19.158Z,0.88
2022-11-09T04:46:20.613Z,1.00
2022-11-09T04:48:22.016Z,1.00
2022-11-09T04:50:23.449Z,0.90
2022-11-09T04:52:24.864Z,1.08
2022-11-09T04:54:26.324Z,0.85
2022-11-09T04:56:27.993Z,0.70
2022-11-09T04:58:29.653Z,1.42
2022-11-09T05:00:31.698Z,1.00
2022-11-09T05:02:33.130Z,1.00
2022-11-09T05:04:34.547Z,1.00
2022-11-09T05:06:36.109Z,1.25
2022-11-09T05:08:37.559Z,1.40
2022-11-09T05:10:39.043Z,0.88
2022-11-09T05:12:45.654Z,1.10
2022-11-09T05:14:47.518Z,1.17
2022-11-09T05:16:49.036Z,1.20
2022-11-09T05:18:50.939Z,0.93
2022-11-09T05:20:52.367Z,0.95
2022-11-09T05:23:12.436Z,0.95
2022-11-09T05:25:13.900Z,1.30
2022-11-09T05:27:15.342Z,0.90
2022-11-09T05:29:16.768Z,0.95
2022-11-09T05:31:18.580Z,1.10
2022-11-09T05:33:20.253Z,1.00
2022-11-09T05:35:21.849Z,0.90
2022-11-09T05:37:23.557Z,1.08
2022-11-09T05:39:24.960Z,0.90
2022-11-09T05:41:27.192Z,0.90
2022-11-09T05:43:28.625Z,0.70
2022-11-09T05:45:42.436Z,1.20
2022-11-09T05:47:45.479Z,1.05
2022-11-09T05:49:46.930Z,0.88
2022-11-09T05:51:48.370Z,1.05
2022-11-09T05:53:49.805Z,0.80
2022-11-09T05:55:51.440Z,1.13
2022-11-09T05:57:52.844Z,1.05
2022-11-09T05:59:54.275Z,1.00
2022-11-09T06:01:55.813Z,1.10
2022-11-09T06:03:57.282Z,1.00
2022-11-09T06:06:08.395Z,1.40
2022-11-09T06:08:13.645Z,1.20
2022-11-09T06:10:15.169Z,0.80
2022-11-09T06:12:16.605Z,0.80
2022-11-09T06:14:18.098Z,0.88
2022-11-09T06:16:19.707Z,1.00
2022-11-09T06:18:21.271Z,1.35
2022-11-09T06:20:23.489Z,1.20
2022-11-09T06:22:24.938Z,1.20
2022-11-09T06:24:26.386Z,0.90
2022-11-09T06:26:27.810Z,1.10
2022-11-09T06:28:29.716Z,1.00
2022-11-09T06:30:31.151Z,0.98
2022-11-09T06:32:32.569Z,0.98
2022-11-09T06:34:33.993Z,0.98
2022-11-09T06:36:35.426Z,1.02
2022-11-09T06:38:36.845Z,1.23
2022-11-09T06:40:39.215Z,1.30
2022-11-09T06:42:40.726Z,1.00
2022-11-09T06:44:42.236Z,1.40
2022-11-09T06:46:43.652Z,1.33
2022-11-09T06:48:45.071Z,1.20
2022-11-09T06:50:46.913Z,0.82
2022-11-09T06:52:48.357Z,1.15
2022-11-09T06:54:49.879Z,1.02
2022-11-09T06:56:54.174Z,1.00
2022-11-09T06:58:55.695Z,1.60
2022-11-09T07:00:57.387Z,1.35
2022-11-09T07:02:58.974Z,1.50
2022-11-09T07:05:00.401Z,1.45
2022-11-09T07:07:01.850Z,1.20
2022-11-09T07:09:03.434Z,1.20
2022-11-09T07:11:06.641Z,1.10
2022-11-09T07:13:09.051Z,1.20
2022-11-09T07:15:11.550Z,1.60
2022-11-09T07:17:12.975Z,1.48
2022-11-09T07:19:14.563Z,1.27
2022-11-09T07:21:16.150Z,1.20
2022-11-09T07:23:18.504Z,1.20
2022-11-09T07:25:21.091Z,1.02
2022-11-09T07:27:27.548Z,1.20
2022-11-09T07:29:29.698Z,1.27
2022-11-09T07:31:31.933Z,1.52
2022-11-09T07:33:33.969Z,1.20
2022-11-09T07:35:35.392Z,1.40
2022-11-09T07:37:37.095Z,1.23
2022-11-09T07:39:38.518Z,1.15
2022-11-09T07:41:39.988Z,1.17
2022-11-09T07:43:41.459Z,1.58
2022-11-09T07:45:42.959Z,1.73
2022-11-09T07:47:44.471Z,1.55
2022-11-09T07:49:46.321Z,1.50
2022-11-09T07:51:47.800Z,2.17
2022-11-09T07:53:49.290Z,1.30
2022-11-09T07:56:01.413Z,2.22
2022-11-09T07:58:09.604Z,1.17
2022-11-09T08:00:12.099Z,1.38
2022-11-09T08:02:13.888Z,1.45
2022-11-09T08:04:16.008Z,1.90
2022-11-09T08:06:18.702Z,1.70
2022-11-09T08:08:20.494Z,1.85
2022-11-09T08:10:22.249Z,1.40
2022-11-09T08:12:23.662Z,1.80
2022-11-09T08:14:25.100Z,1.55
2022-11-09T08:16:26.557Z,1.90
2022-11-09T08:18:28.047Z,1.50
2022-11-09T08:20:30.563Z,1.10
2022-11-09T08:22:32.020Z,1.20
2022-11-09T08:24:33.437Z,1.35
2022-11-09T08:26:34.960Z,1.55
2022-11-09T08:28:36.630Z,1.90
2022-11-09T08:30:38.176Z,2.47
2022-11-09T08:32:40.924Z,1.50
2022-11-09T08:34:46.878Z,1.33
2022-11-09T08:36:48.304Z,1.60
2022-11-09T08:38:49.706Z,1.45
2022-11-09T08:40:56.890Z,1.23
2022-11-09T08:43:03.943Z,1.77
2022-11-09T08:45:06.325Z,1.48
2022-11-09T08:47:07.760Z,1.25
2022-11-09T08:49:09.373Z,1.35
2022-11-09T08:51:11.128Z,1.42
2022-11-09T08:53:12.606Z,1.17
2022-11-09T08:55:14.036Z,1.55
2022-11-09T08:57:18.965Z,1.27
2022-11-09T08:59:20.403Z,1.65
2022-11-09T09:01:22.042Z,1.58
2022-11-09T09:03:23.655Z,1.23
2022-11-09T09:05:26.496Z,1.50
2022-11-09T09:07:27.971Z,2.30
2022-11-09T09:09:29.491Z,1.35
2022-11-09T09:11:31.001Z,1.70
2022-11-09T09:13:33.243Z,1.63
2022-11-09T09:15:34.763Z,2.00
2022-11-09T09:17:36.179Z,1.73
2022-11-09T09:19:37.681Z,1.98
2022-11-09T09:21:39.281Z,1.20
2022-11-09T09:23:40.835Z,1.70
2022-11-09T09:25:42.743Z,1.83
2022-11-09T09:27:44.977Z,1.88
2022-11-09T09:29:46.447Z,1.00
2022-11-09T09:31:47.873Z,1.58
2022-11-09T09:33:49.926Z,1.33
2022-11-09T09:35:51.511Z,1.58
2022-11-09T09:37:53.403Z,2.17
2022-11-09T09:39:54.941Z,1.55
2022-11-09T09:41:59.684Z,1.40
2022-11-09T09:44:25.982Z,1.88
2022-11-09T09:46:43.646Z,1.65
2022-11-09T09:48:51.726Z,1.40
2022-11-09T09:50:58.938Z,1.40
2022-11-09T09:53:23.964Z,2.15
2022-11-09T09:55:27.199Z,1.60
2022-11-09T09:57:30.706Z,1.77
2022-11-09T09:59:43.670Z,1.25
2022-11-09T10:01:45.841Z,1.60
2022-11-09T10:03:48.485Z,1.63
2022-11-09T10:06:25.969Z,1.60
2022-11-09T10:08:51.785Z,1.60
2022-11-09T10:11:13.077Z,1.65
2022-11-09T10:13:17.315Z,1.40
2022-11-09T10:16:01.806Z,2.20
2022-11-09T10:18:21.958Z,1.50
2022-11-09T10:20:32.767Z,1.00
2022-11-09T10:23:02.306Z,1.27
2022-11-09T10:27:46.102Z,2.95
2022-11-09T10:29:50.154Z,2.67
2022-11-09T10:31:58.656Z,1.30
2022-11-09T10:34:11.195Z,1.38
2022-11-09T10:36:24.149Z,1.40
2022-11-09T10:38:29.556Z,1.50
2022-11-09T10:40:58.894Z,1.42
2022-11-09T10:43:02.108Z,1.58
2022-11-09T10:45:35.052Z,1.20
2022-11-09T10:47:57.130Z,2.85
2022-11-09T10:50:09.154Z,2.45
2022-11-09T10:52:44.180Z,2.00
2022-11-09T10:54:48.546Z,1.60
2022-11-09T10:57:05.882Z,1.27
2022-11-09T10:59:47.067Z,1.45
2022-11-09T11:01:48.592Z,1.27
2022-11-09T11:03:55.446Z,1.20
2022-11-09T11:06:12.082Z,1.33
2022-11-09T11:08:24.361Z,2.22
2022-11-09T11:10:25.902Z,1.40
2022-11-09T11:12:27.436Z,1.40
2022-11-09T11:14:41.695Z,1.15
2022-11-09T11:16:44.843Z,1.48
2022-11-09T11:18:47.743Z,1.08
2022-11-09T11:21:05.900Z,1.23
2022-11-09T11:23:19.813Z,1.30
2022-11-09T11:25:22.676Z,1.42
2022-11-09T11:27:24.048Z,1.27
2022-11-09T11:29:35.431Z,1.10
2022-11-09T11:31:36.887Z,1.10
2022-11-09T11:33:38.534Z,1.23
2022-11-09T11:35:56.485Z,1.00
2022-11-09T11:38:23.142Z,1.15
2022-11-09T11:40:38.368Z,1.20
2022-11-09T11:43:03.446Z,1.00
2022-11-09T11:47:43.477Z,1.15
2022-11-09T11:50:00.359Z,1.35
2022-11-09T11:52:16.007Z,1.10
2022-11-09T11:54:52.968Z,1.15
2022-11-09T11:57:18.857Z,1.30
2022-11-09T11:59:23.078Z,1.10
2022-11-09T12:02:02.515Z,1.35
2022-11-09T12:04:12.831Z,1.20
2022-11-09T12:06:44.935Z,1.20
2022-11-09T12:09:06.110Z,1.35
2022-11-09T12:11:25.830Z,1.50
2022-11-09T12:13:54.561Z,1.35
2022-11-09T12:16:13.936Z,1.02
2022-11-09T12:18:18.636Z,0.90
2022-11-09T12:20:47.716Z,0.77
2022-11-09T12:23:26.572Z,0.90
2022-11-09T12:25:44.752Z,1.20
2022-11-09T12:27:58.325Z,0.68
2022-11-09T12:30:06.064Z,1.10
2022-11-09T12:32:31.187Z,1.10
2022-11-09T12:34:57.096Z,1.00
2022-11-09T12:37:11.482Z,1.17
2022-11-09T12:39:19.138Z,0.70
2022-11-09T12:41:23.962Z,1.17
2022-11-09T12:43:28.026Z,0.90
2022-11-09T12:45:35.330Z,0.90
2022-11-09T12:47:46.116Z,1.45
2022-11-09T12:49:47.956Z,1.75
2022-11-09T12:51:50.970Z,1.30
2022-11-09T12:53:56.460Z,1.13
2022-11-09T12:56:18.680Z,1.00
2022-11-09T12:58:26.321Z,1.17
2022-11-09T13:00:47.340Z,1.10
2022-11-09T13:02:57.870Z,1.30
2022-11-09T13:05:06.290Z,1.15
2022-11-09T13:09:24.307Z,1.15
2022-11-09T13:11:50.316Z,1.02
2022-11-09T13:13:51.783Z,0.98
2022-11-09T13:16:23.783Z,0.90
2022-11-09T13:18:46.473Z,1.75
2022-11-09T13:20:55.169Z,1.40
2022-11-09T13:23:00.225Z,1.67
2022-11-09T13:25:44.657Z,1.70
2022-11-09T13:27:48.148Z,1.27
2022-11-09T13:29:56.094Z,1.30
2022-11-09T13:34:39.507Z,0.98
2022-11-09T13:36:40.930Z,0.93
2022-11-09T13:38:42.783Z,1.00
2022-11-09T13:40:49.619Z,0.90
2022-11-09T13:43:06.311Z,1.05
2022-11-09T13:45:49.157Z,0.93
2022-11-09T13:47:51.778Z,1.38
2022-11-09T13:49:53.379Z,1.48
2022-11-09T13:51:54.908Z,1.10
2022-11-09T13:54:00.778Z,1.80
2022-11-09T13:56:19.510Z,1.17
2022-11-09T13:58:35.394Z,1.25
2022-11-09T14:00:36.870Z,1.13
2022-11-09T14:02:38.321Z,0.82
2022-11-09T14:04:43.581Z,0.88
2022-11-09T14:06:45.100Z,1.20
2022-11-09T14:08:47.817Z,0.85
2022-11-09T14:11:15.932Z,0.80
2022-11-09T14:13:59.077Z,0.90
2022-11-09T14:16:26.553Z,1.25
2022-11-09T14:18:39.799Z,1.13
2022-11-09T14:20:49.418Z,1.38
2022-11-09T14:22:51.527Z,1.00
2022-11-09T14:24:53.217Z,0.70
2022-11-09T14:27:09.757Z,0.98
2022-11-09T14:29:22.753Z,1.00
2022-11-09T14:31:29.236Z,1.23
2022-11-09T14:33:36.410Z,1.00
2022-11-09T14:35:39.242Z,0.90
2022-11-09T14:37:45.025Z,1.40
2022-11-09T14:39:50.919Z,1.67
2022-11-09T14:41:52.488Z,1.13
2022-11-09T14:43:56.549Z,1.08
2022-11-09T14:46:06.899Z,1.17
2022-11-09T14:48:16.887Z,0.93
2022-11-09T14:50:36.252Z,1.00
2022-11-09T14:52:37.857Z,1.15
2022-11-09T14:54:44.665Z,0.70
2022-11-09T14:56:47.831Z,1.35
2022-11-09T14:58:49.968Z,1.30
2022-11-09T15:01:09.504Z,0.85
2022-11-09T15:03:30.178Z,1.00
2022-11-09T15:05:38.941Z,0.95
2022-11-09T15:07:40.608Z,1.05
2022-11-09T15:09:44.298Z,0.95
2022-11-09T15:11:46.858Z,1.00
2022-11-09T15:13:48.294Z,0.82
2022-11-09T15:15:51.672Z,1.42
2022-11-09T15:17:53.309Z,0.70
2022-11-09T15:20:01.138Z,1.15
2022-11-09T15:22:02.587Z,1.00
2022-11-09T15:24:16.440Z,1.15
2022-11-09T15:26:43.323Z,1.20
2022-11-09T15:28:47.235Z,1.17
2022-11-09T15:30:48.833Z,1.08
2022-11-09T15:32:50.302Z,1.15
2022-11-09T15:34:51.751Z,0.90
2022-11-09T15:36:54.973Z,1.08
2022-11-09T15:39:12.905Z,1.17
2022-11-09T15:41:18.691Z,1.55
2022-11-09T15:43:20.204Z,0.90
2022-11-09T15:45:21.793Z,0.93
2022-11-09T15:47:51.204Z,1.63
2022-11-09T15:49:52.716Z,0.88
2022-11-09T15:51:54.746Z,1.42
2022-11-09T15:53:56.272Z,1.40
2022-11-09T15:56:00.344Z,1.52
2022-11-09T15:58:01.901Z,1.67
2022-11-09T16:00:09.502Z,1.70
2022-11-09T16:02:14.990Z,0.95
2022-11-09T16:04:16.492Z,0.90
2022-11-09T16:06:23.448Z,1.10
2022-11-09T16:08:24.990Z,0.50
2022-11-09T16:10:30.592Z,0.93
2022-11-09T16:12:32.007Z,1.17
2022-11-09T16:14:34.266Z,0.93
2022-11-09T16:16:35.706Z,0.93
2022-11-09T16:18:37.204Z,1.05
2022-11-09T16:20:40.270Z,1.15
2022-11-09T16:22:42.112Z,1.08
2022-11-09T16:24:44.575Z,0.82
2022-11-09T16:26:46.125Z,1.23
2022-11-09T16:28:47.827Z,1.00
2022-11-09T16:30:49.334Z,0.80
2022-11-09T16:32:50.843Z,1.08
2022-11-09T16:35:15.352Z,1.10
2022-11-09T16:37:14.145Z,0.93
2022-11-09T16:39:18.210Z,1.13
2022-11-09T16:41:20.568Z,0.85
2022-11-09T16:43:22.217Z,1.20
2022-11-09T16:45:25.905Z,0.80
2022-11-09T16:47:29.405Z,1.05
2022-11-09T16:49:31.891Z,1.00
2022-11-09T16:51:33.335Z,0.85
2022-11-09T16:53:34.797Z,1.10
2022-11-09T16:55:36.408Z,1.10
2022-11-09T16:57:37.921Z,1.25
2022-11-09T16:59:39.751Z,1.17
2022-11-09T17:01:41.264Z,1.80
2022-11-09T17:03:42.845Z,1.02
2022-11-09T17:05:44.378Z,0.77
2022-11-09T17:07:48.959Z,1.35
2022-11-09T17:09:50.422Z,1.27
2022-11-09T17:11:51.877Z,1.10
2022-11-09T17:13:58.085Z,1.27
2022-11-09T17:16:04.570Z,1.20
2022-11-09T17:18:08.149Z,1.42
2022-11-09T17:20:11.384Z,1.10
2022-11-09T17:22:14.558Z,1.58
2022-11-09T17:24:16.192Z,1.50
2022-11-09T17:26:18.641Z,1.17
2022-11-09T17:28:20.301Z,0.80
2022-11-09T17:30:23.257Z,1.10
2022-11-09T17:32:25.937Z,1.00
2022-11-09T17:34:27.434Z,1.10
2022-11-09T17:36:56.908Z,1.20
2022-11-09T17:38:50.339Z,1.60
2022-11-09T17:40:51.858Z,1.58
2022-11-09T17:42:53.304Z,1.35
2022-11-09T17:44:54.740Z,1.60
2022-11-09T17:46:56.167Z,1.63
2022-11-09T17:48:57.610Z,1.17
2022-11-09T17:50:59.479Z,1.30
2022-11-09T17:53:00.899Z,1.02
2022-11-09T17:55:02.447Z,0.82
2022-11-09T17:57:04.075Z,1.27
2022-11-09T17:59:05.615Z,1.27
2022-11-09T18:01:09.570Z,0.95
2022-11-09T18:03:11.098Z,0.90
2022-11-09T18:05:15.657Z,1.08
2022-11-09T18:07:17.203Z,0.85
2022-11-09T18:09:40.254Z,0.80
2022-11-09T18:11:41.869Z,0.80
2022-11-09T18:13:44.453Z,1.33
2022-11-09T18:15:45.862Z,1.20
2022-11-09T18:17:47.441Z,1.35
2022-11-09T18:19:48.878Z,1.10
2022-11-09T18:21:50.688Z,1.10
2022-11-09T18:23:52.680Z,1.25
2022-11-09T18:25:58.209Z,1.17
2022-11-09T18:27:59.652Z,0.95
2022-11-09T18:30:02.466Z,1.10
2022-11-09T18:32:04.077Z,0.82
2022-11-09T18:34:05.559Z,1.10
2022-11-09T18:36:11.350Z,1.00
2022-11-09T18:38:13.338Z,0.65
2022-11-09T18:40:16.361Z,0.88
2022-11-09T18:42:17.781Z,1.10
2022-11-09T18:44:19.217Z,1.00
2022-11-09T18:46:22.216Z,1.08
2022-11-09T18:48:24.150Z,1.42
2022-11-09T18:50:25.678Z,1.40
2022-11-09T18:52:27.140Z,1.13
2022-11-09T18:54:29.260Z,1.17
2022-11-09T18:56:30.808Z,0.90
2022-11-09T18:58:33.205Z,1.35
2022-11-09T19:00:34.743Z,1.20
2022-11-09T19:02:36.329Z,1.60
2022-11-09T19:04:38.049Z,1.33
2022-11-09T19:06:39.553Z,1.17
2022-11-09T19:08:59.394Z,0.98
2022-11-09T19:11:05.214Z,1.20
2022-11-09T19:13:06.679Z,1.88
2022-11-09T19:15:08.420Z,1.52
2022-11-09T19:17:13.393Z,1.58
2022-11-09T19:19:15.720Z,1.92
2022-11-09T19:21:38.773Z,2.33
2022-11-09T19:23:40.318Z,2.03
2022-11-09T19:25:41.793Z,1.50
2022-11-09T19:27:43.239Z,1.80
2022-11-09T19:29:44.767Z,1.73
2022-11-09T19:31:47.126Z,1.65
2022-11-09T19:33:48.737Z,1.67
2022-11-09T19:36:23.428Z,1.67
2022-11-09T19:38:14.466Z,2.00
2022-11-09T19:40:16.320Z,1.90
2022-11-09T19:42:17.810Z,1.58
2022-11-09T19:44:19.312Z,1.75
2022-11-09T19:46:20.837Z,1.77
2022-11-09T19:48:22.627Z,1.80
2022-11-09T19:50:24.200Z,1.70
2022-11-09T19:52:25.639Z,1.70
2022-11-09T19:54:27.048Z,2.13
2022-11-09T19:56:30.969Z,1.40
2022-11-09T19:58:32.479Z,1.75
2022-11-09T20:00:35.754Z,1.65
2022-11-09T20:02:37.194Z,1.88
2022-11-09T20:04:38.705Z,1.70
2022-11-09T20:06:41.102Z,1.60
2022-11-09T20:08:42.652Z,1.60
2022-11-09T20:10:44.098Z,1.80
2022-11-09T20:12:51.479Z,1.83
2022-11-09T20:14:52.914Z,1.40
2022-11-09T20:16:54.875Z,2.05
2022-11-09T20:18:57.083Z,1.73
2022-11-09T20:20:58.527Z,2.10
2022-11-09T20:23:00.694Z,2.13
2022-11-09T20:25:02.641Z,2.03
2022-11-09T20:27:04.216Z,2.50
2022-11-09T20:29:06.171Z,2.83
2022-11-09T20:31:11.959Z,1.98
2022-11-09T20:33:13.602Z,2.63
2022-11-09T20:35:15.663Z,2.65
2022-11-09T20:37:17.881Z,2.65
2022-11-09T20:39:19.356Z,2.05
2022-11-09T20:41:25.183Z,2.45
2022-11-09T20:43:28.126Z,2.70
2022-11-09T20:45:29.534Z,2.20
2022-11-09T20:47:57.641Z,2.20
2022-11-09T20:49:52.426Z,2.83
2022-11-09T20:51:54.076Z,2.70
2022-11-09T20:53:55.555Z,2.47
2022-11-09T20:55:57.046Z,2.30
2022-11-09T20:57:58.488Z,2.30
2022-11-09T20:59:59.993Z,3.30
2022-11-09T21:02:01.486Z,2.50
2022-11-09T21:04:03.464Z,2.55
2022-11-09T21:06:06.515Z,2.50
2022-11-09T21:08:07.976Z,2.70
2022-11-09T21:10:09.635Z,2.60
2022-11-09T21:12:24.749Z,2.45
2022-11-09T21:14:26.606Z,2.72
2022-11-09T21:16:29.000Z,3.38
2022-11-09T21:18:30.450Z,2.40
2022-11-09T21:20:31.934Z,2.42
2022-11-09T21:23:05.039Z,2.83
2022-11-09T21:25:25.446Z,2.65
2022-11-09T21:27:48.020Z,2.65
2022-11-09T21:29:52.934Z,3.35
2022-11-09T21:31:54.868Z,2.75
2022-11-09T21:33:56.426Z,2.40
2022-11-09T21:35:58.104Z,2.72
2022-11-09T21:37:59.617Z,2.25
2022-11-09T21:40:01.085Z,2.30
2022-11-09T21:42:03.857Z,2.35
2022-11-09T21:44:07.949Z,2.65
2022-11-09T21:46:09.346Z,2.90
2022-11-09T21:48:10.790Z,2.80
2022-11-09T21:50:12.985Z,2.25
2022-11-09T21:52:14.544Z,2.75
2022-11-09T21:54:16.020Z,2.70
2022-11-09T21:56:17.452Z,2.45
2022-11-09T21:58:18.868Z,2.47
2022-11-09T22:00:20.698Z,2.75
2022-11-09T22:02:22.153Z,3.08
2022-11-09T22:04:23.581Z,2.03
2022-11-09T22:06:25.699Z,2.33
2022-11-09T22:08:27.466Z,2.20
2022-11-09T22:10:28.948Z,2.83
2022-11-09T22:12:48.884Z,2.35
2022-11-09T22:15:08.816Z,2.53
2022-11-09T22:17:10.248Z,2.65
2022-11-09T22:19:30.044Z,2.65
2022-11-09T22:21:31.934Z,3.03
2022-11-09T22:23:33.353Z,2.55
2022-11-09T22:25:34.939Z,2.80
2022-11-09T22:27:36.379Z,2.65
2022-11-09T22:29:37.807Z,2.63
2022-11-09T22:31:39.330Z,2.20
2022-11-09T22:33:40.736Z,2.70
2022-11-09T22:35:42.182Z,2.67
2022-11-09T22:37:43.596Z,2.28
2022-11-09T22:39:47.487Z,2.63
2022-11-09T22:41:49.407Z,2.75
2022-11-09T22:43:52.464Z,2.83
2022-11-09T22:45:53.948Z,2.95
2022-11-09T22:47:55.395Z,3.33
2022-11-09T22:49:56.840Z,2.28
2022-11-09T22:51:58.247Z,2.83
2022-11-09T22:53:59.699Z,2.45
2022-11-09T22:56:02.832Z,2.65
2022-11-09T22:58:04.375Z,2.60
2022-11-09T23:00:06.489Z,2.38
2022-11-09T23:02:07.921Z,2.35
2022-11-09T23:04:10.478Z,2.47
2022-11-09T23:06:17.576Z,2.53
2022-11-09T23:08:18.982Z,2.50
2022-11-09T23:10:20.421Z,2.47
2022-11-09T23:12:21.823Z,2.70
2022-11-09T23:14:43.196Z,2.40
2022-11-09T23:16:44.619Z,2.15
2022-11-09T23:18:55.260Z,3.42
2022-11-09T23:20:59.404Z,2.67
2022-11-09T23:23:00.824Z,2.33
2022-11-09T23:25:20.613Z,2.10
2022-11-09T23:27:22.033Z,3.33
2022-11-09T23:29:23.439Z,2.65
2022-11-09T23:31:26.915Z,2.97
2022-11-09T23:33:29.206Z,2.90
2022-11-09T23:35:31.225Z,2.78
2022-11-09T23:37:32.663Z,2.58
2022-11-09T23:39:34.080Z,2.20
2022-11-09T23:41:35.517Z,2.35
2022-11-09T23:43:37.756Z,3.03
2022-11-09T23:45:40.457Z,2.35
2022-11-09T23:47:41.864Z,2.58
2022-11-09T23:49:43.325Z,2.63
2022-11-09T23:51:44.746Z,3.13
2022-11-09T23:53:46.150Z,2.20
2022-11-09T23:55:47.626Z,2.50
2022-11-09T23:57:49.039Z,2.60
2022-11-09T23:59:50.460Z,2.55
